Time;durP1;ratioP1;P1;durP2;ratioP2;P2;SDS_P1;SDS_P2;PMS_P1;PMS_P2;Temp;Humidity;BMP_temperature;BMP_pressure;BME280_temperature;BME280_humidity;BME280_pressure;Samples;Min_cycle;Max_cycle;Signal;HPM_P1;HPM_P2
2022/10/02 00:01:51;;;;;;;2.38;1.00;;;;;;;;;;5058019;28;20016;-79
2022/10/02 00:04:21;;;;;;;4.00;0.70;;;;;;;;;;5040882;28;20546;-79
2022/10/02 00:06:48;;;;;;;3.50;0.63;;;;;;;;;;5043428;28;20520;-78
2022/10/02 00:09:27;;;;;;;3.05;0.77;;;;;;;;;;5060443;28;20059;-79
2022/10/02 00:11:56;;;;;;;3.17;0.77;;;;;;;;;;5059343;28;20939;-79
2022/10/02 00:14:23;;;;;;;3.58;0.90;;;;;;;;;;5064861;28;20056;-79
2022/10/02 00:16:51;;;;;;;4.60;0.95;;;;;;;;;;5065395;28;20013;-79
2022/10/02 00:19:18;;;;;;;3.92;0.98;;;;;;;;;;5062690;28;20033;-79
2022/10/02 00:21:50;;;;;;;3.97;0.82;;;;;;;;;;5059115;28;20494;-79
2022/10/02 00:24:29;;;;;;;4.10;0.65;;;;;;;;;;5059163;28;20397;-79
2022/10/02 00:27:15;;;;;;;2.58;0.85;;;;;;;;;;5058905;28;20029;-79
2022/10/02 00:29:48;;;;;;;5.55;1.00;;;;;;;;;;5057550;28;20523;-80
2022/10/02 00:32:33;;;;;;;2.28;0.60;;;;;;;;;;5053082;28;20029;-79
2022/10/02 00:34:59;;;;;;;1.10;0.50;;;;;;;;;;5061177;28;20493;-79
2022/10/02 00:37:32;;;;;;;2.28;0.80;;;;;;;;;;5057113;28;20569;-78
2022/10/02 00:40:24;;;;;;;7.07;0.90;;;;;;;;;;5060891;28;20365;-79
2022/10/02 00:43:03;;;;;;;5.53;0.88;;;;;;;;;;5060835;28;20052;-79
2022/10/02 00:45:35;;;;;;;3.85;0.60;;;;;;;;;;5062738;28;20495;-79
2022/10/02 00:48:26;;;;;;;4.47;1.02;;;;;;;;;;5068867;28;20037;-79
2022/10/02 00:51:03;;;;;;;4.10;0.90;;;;;;;;;;5050097;28;20025;-79
2022/10/02 00:53:48;;;;;;;3.53;0.80;;;;;;;;;;5045707;28;20025;-79
2022/10/02 00:56:30;;;;;;;5.57;0.82;;;;;;;;;;5060216;28;20119;-79
2022/10/02 00:59:15;;;;;;;3.13;0.82;;;;;;;;;;5059101;28;20279;-79
2022/10/02 01:01:48;;;;;;;7.75;0.90;;;;;;;;;;5056145;28;20486;-78
2022/10/02 01:04:16;;;;;;;3.78;0.88;;;;;;;;;;5055522;28;20385;-79
2022/10/02 01:06:42;;;;;;;2.67;0.70;;;;;;;;;;5045355;28;20589;-79
2022/10/02 01:09:08;;;;;;;4.00;0.75;;;;;;;;;;5057043;28;20074;-79
2022/10/02 01:11:35;;;;;;;2.75;0.85;;;;;;;;;;5062995;28;20027;-79
2022/10/02 01:14:01;;;;;;;3.83;1.15;;;;;;;;;;5061471;28;20035;-78
2022/10/02 01:16:27;;;;;;;3.22;1.05;;;;;;;;;;5056268;28;20488;-79
2022/10/02 01:18:53;;;;;;;1.38;0.50;;;;;;;;;;5060649;28;20488;-79
2022/10/02 01:21:30;;;;;;;4.22;0.70;;;;;;;;;;5058966;28;20074;-79
2022/10/02 01:23:56;;;;;;;1.58;0.55;;;;;;;;;;5038497;28;20031;-79
2022/10/02 01:26:22;;;;;;;1.77;0.60;;;;;;;;;;5059977;28;20021;-78
2022/10/02 01:28:49;;;;;;;1.25;0.50;;;;;;;;;;5061261;28;20027;-76
2022/10/02 01:31:16;;;;;;;3.72;0.93;;;;;;;;;;5055866;28;20029;-77
2022/10/02 01:33:44;;;;;;;3.08;0.60;;;;;;;;;;5061112;28;20047;-77
2022/10/02 01:36:11;;;;;;;1.67;0.70;;;;;;;;;;5055980;28;20558;-77
2022/10/02 01:38:37;;;;;;;3.55;0.98;;;;;;;;;;5057802;28;20165;-76
2022/10/02 01:41:04;;;;;;;2.53;1.23;;;;;;;;;;5055822;28;20048;-77
2022/10/02 01:43:32;;;;;;;2.58;0.60;;;;;;;;;;5060150;28;20039;-78
2022/10/02 01:46:01;;;;;;;4.47;0.90;;;;;;;;;;5061711;28;20028;-77
2022/10/02 01:48:45;;;;;;;3.42;0.93;;;;;;;;;;5035560;28;20398;-77
2022/10/02 01:51:30;;;;;;;2.92;0.80;;;;;;;;;;5055683;28;20025;-76
2022/10/02 01:54:28;;;;;;;2.67;0.98;;;;;;;;;;5058151;28;20107;-77
2022/10/02 01:57:00;;;;;;;3.50;0.70;;;;;;;;;;5006005;28;20045;-77
2022/10/02 01:59:26;;;;;;;3.08;0.90;;;;;;;;;;5052406;28;20040;-76
2022/10/02 02:02:00;;;;;;;3.90;0.80;;;;;;;;;;5061238;28;20017;-77
2022/10/02 02:04:29;;;;;;;4.50;0.75;;;;;;;;;;5054968;28;20033;-77
2022/10/02 02:06:55;;;;;;;6.80;1.00;;;;;;;;;;5062110;28;20570;-77
2022/10/02 02:09:26;;;;;;;3.20;0.85;;;;;;;;;;5053379;28;20551;-77
2022/10/02 02:12:11;;;;;;;3.22;0.70;;;;;;;;;;5058901;28;20448;-77
2022/10/02 02:14:40;;;;;;;1.08;0.63;;;;;;;;;;5057706;28;20082;-76
2022/10/02 02:17:12;;;;;;;2.90;0.88;;;;;;;;;;5060136;28;20491;-77
2022/10/02 02:19:48;;;;;;;1.77;0.60;;;;;;;;;;5057873;28;20070;-77
2022/10/02 02:22:22;;;;;;;4.05;0.70;;;;;;;;;;5057165;28;20035;-77
2022/10/02 02:24:52;;;;;;;2.70;0.80;;;;;;;;;;5058987;28;20060;-77
2022/10/02 02:27:21;;;;;;;2.50;0.80;;;;;;;;;;5055148;28;20040;-76
2022/10/02 02:29:49;;;;;;;2.47;0.85;;;;;;;;;;5053972;28;20477;-77
2022/10/02 02:32:17;;;;;;;4.55;0.80;;;;;;;;;;5039728;28;20037;-77
2022/10/02 02:34:51;;;;;;;2.55;0.70;;;;;;;;;;5055302;28;20125;-77
2022/10/02 02:37:18;;;;;;;3.67;1.05;;;;;;;;;;5051630;28;20824;-76
2022/10/02 02:40:06;;;;;;;3.13;0.80;;;;;;;;;;5046730;28;20511;-77
2022/10/02 02:42:35;;;;;;;1.33;0.50;;;;;;;;;;5051425;28;20101;-77
2022/10/02 02:45:22;;;;;;;2.05;0.60;;;;;;;;;;5053957;28;20045;-77
2022/10/02 02:47:52;;;;;;;3.47;0.57;;;;;;;;;;5050943;28;20052;-78
2022/10/02 02:50:23;;;;;;;3.25;0.57;;;;;;;;;;5055355;28;20115;-77
2022/10/02 02:52:55;;;;;;;3.17;0.65;;;;;;;;;;5050991;28;20052;-77
2022/10/02 02:55:30;;;;;;;2.65;0.63;;;;;;;;;;5054319;28;20033;-77
2022/10/02 02:58:00;;;;;;;1.90;0.80;;;;;;;;;;5039055;28;20121;-77
2022/10/02 03:00:26;;;;;;;2.53;0.90;;;;;;;;;;5052500;28;20128;-77
2022/10/02 03:02:54;;;;;;;3.15;1.00;;;;;;;;;;5058901;28;20024;-76
2022/10/02 03:05:21;;;;;;;2.03;0.70;;;;;;;;;;5051585;28;20472;-76
2022/10/02 03:07:52;;;;;;;3.58;0.95;;;;;;;;;;5059176;28;20028;-77
2022/10/02 03:10:21;;;;;;;5.53;1.10;;;;;;;;;;5059562;28;20606;-77
2022/10/02 03:12:53;;;;;;;2.30;0.55;;;;;;;;;;5055407;28;20093;-77
2022/10/02 03:15:32;;;;;;;2.60;0.68;;;;;;;;;;5055714;28;20028;-77
2022/10/02 03:18:19;;;;;;;3.17;1.00;;;;;;;;;;5055602;28;20040;-77
2022/10/02 03:20:45;;;;;;;1.83;0.60;;;;;;;;;;5057317;28;20202;-77
2022/10/02 03:23:11;;;;;;;3.28;0.82;;;;;;;;;;5057639;28;20282;-77
2022/10/02 03:25:42;;;;;;;4.13;1.02;;;;;;;;;;5056817;28;20104;-77
2022/10/02 03:28:11;;;;;;;2.08;0.80;;;;;;;;;;5057190;28;20067;-78
2022/10/02 03:30:38;;;;;;;3.90;1.00;;;;;;;;;;5056794;28;20122;-81
2022/10/02 03:33:04;;;;;;;5.25;1.02;;;;;;;;;;5059598;28;20136;-80
2022/10/02 03:35:31;;;;;;;3.03;0.70;;;;;;;;;;5060052;28;20024;-80
2022/10/02 03:37:59;;;;;;;3.90;1.00;;;;;;;;;;5059791;28;20052;-78
2022/10/02 03:40:26;;;;;;;3.83;1.08;;;;;;;;;;5059742;28;20424;-78
2022/10/02 03:42:57;;;;;;;3.65;0.75;;;;;;;;;;5059277;28;20024;-79
2022/10/02 03:45:23;;;;;;;3.83;1.33;;;;;;;;;;5057617;28;20024;-79
2022/10/02 03:47:49;;;;;;;19.85;1.67;;;;;;;;;;5057218;28;20043;-79
2022/10/02 03:50:16;;;;;;;13.77;1.35;;;;;;;;;;5059585;28;20111;-78
2022/10/02 03:52:43;;;;;;;2.80;0.93;;;;;;;;;;5057120;28;20374;-79
2022/10/02 03:55:33;;;;;;;6.53;1.55;;;;;;;;;;5058953;28;20024;-77
2022/10/02 03:58:04;;;;;;;7.65;1.73;;;;;;;;;;5053291;28;20561;-79
2022/10/02 04:00:35;;;;;;;6.63;1.92;;;;;;;;;;5061724;28;20060;-77
2022/10/02 04:03:05;;;;;;;3.50;1.15;;;;;;;;;;5057881;28;20032;-80
2022/10/02 04:05:38;;;;;;;5.50;1.00;;;;;;;;;;5052436;28;20051;-78
2022/10/02 04:08:19;;;;;;;5.70;1.17;;;;;;;;;;5056496;28;20111;-79
2022/10/02 04:10:50;;;;;;;5.13;1.35;;;;;;;;;;5054876;28;20167;-79
2022/10/02 04:13:21;;;;;;;6.20;1.25;;;;;;;;;;5057627;28;20032;-79
2022/10/02 04:15:47;;;;;;;6.65;1.08;;;;;;;;;;5057126;28;20024;-79
2022/10/02 04:18:19;;;;;;;3.90;1.17;;;;;;;;;;5058505;28;20125;-80
2022/10/02 04:20:54;;;;;;;9.27;1.60;;;;;;;;;;5063212;28;20107;-77
2022/10/02 04:23:23;;;;;;;6.25;1.17;;;;;;;;;;5063728;28;20046;-77
2022/10/02 04:25:51;;;;;;;3.83;1.15;;;;;;;;;;5062006;28;20024;-76
2022/10/02 04:28:23;;;;;;;8.48;1.42;;;;;;;;;;5060513;28;20082;-77
2022/10/02 04:30:51;;;;;;;6.28;1.58;;;;;;;;;;5062475;28;20051;-78
2022/10/02 04:33:18;;;;;;;4.70;1.02;;;;;;;;;;5058005;28;20035;-76
2022/10/02 04:35:53;;;;;;;8.15;1.30;;;;;;;;;;5061893;28;20025;-77
2022/10/02 04:38:31;;;;;;;3.67;1.08;;;;;;;;;;5061327;28;20476;-77
2022/10/02 04:40:57;;;;;;;6.82;1.52;;;;;;;;;;5056406;28;20021;-77
2022/10/02 04:43:36;;;;;;;7.78;1.05;;;;;;;;;;5059865;28;20025;-77
2022/10/02 04:46:08;;;;;;;4.78;1.13;;;;;;;;;;5056712;28;20384;-77
2022/10/02 04:48:40;;;;;;;8.23;1.85;;;;;;;;;;5060805;28;20043;-76
2022/10/02 04:51:06;;;;;;;6.60;1.48;;;;;;;;;;5061498;28;20500;-77
2022/10/02 04:53:48;;;;;;;5.07;1.48;;;;;;;;;;5061155;28;20143;-77
2022/10/02 04:56:32;;;;;;;4.47;1.52;;;;;;;;;;5057188;28;20498;-77
2022/10/02 04:59:05;;;;;;;5.90;1.50;;;;;;;;;;5058638;28;20127;-76
2022/10/02 05:01:39;;;;;;;7.30;1.98;;;;;;;;;;5063107;28;20041;-76
2022/10/02 05:04:14;;;;;;;7.47;2.28;;;;;;;;;;5055876;28;20103;-77
2022/10/02 05:06:58;;;;;;;10.20;1.70;;;;;;;;;;5062221;28;20024;-76
2022/10/02 05:09:39;;;;;;;11.75;1.73;;;;;;;;;;5061769;28;20035;-76
2022/10/02 05:12:05;;;;;;;6.80;1.30;;;;;;;;;;5058569;28;20025;-78
2022/10/02 05:14:44;;;;;;;9.05;1.10;;;;;;;;;;5061967;28;20021;-76
2022/10/02 05:17:19;;;;;;;2.55;1.00;;;;;;;;;;5055531;28;20040;-77
2022/10/02 05:19:56;;;;;;;6.95;1.20;;;;;;;;;;5061886;28;20419;-76
2022/10/02 05:22:22;;;;;;;4.32;1.23;;;;;;;;;;5062012;28;20527;-78
2022/10/02 05:24:55;;;;;;;6.60;1.52;;;;;;;;;;5062147;28;20032;-78
2022/10/02 05:27:24;;;;;;;6.82;1.33;;;;;;;;;;5061926;28;20519;-77
2022/10/02 05:29:58;;;;;;;10.63;1.38;;;;;;;;;;5058898;28;20270;-78
2022/10/02 05:32:36;;;;;;;5.80;1.10;;;;;;;;;;5053625;28;20035;-78
2022/10/02 05:35:03;;;;;;;12.38;1.25;;;;;;;;;;5059036;28;20472;-80
2022/10/02 05:37:32;;;;;;;12.07;2.50;;;;;;;;;;5059037;28;20047;-79
2022/10/02 05:39:58;;;;;;;9.68;1.58;;;;;;;;;;5057829;28;20548;-79
2022/10/02 05:42:36;;;;;;;9.45;1.70;;;;;;;;;;5060472;28;20401;-81
2022/10/02 05:45:04;;;;;;;4.63;1.50;;;;;;;;;;5062010;28;20281;-73
2022/10/02 05:47:31;;;;;;;4.85;1.30;;;;;;;;;;5061406;28;20047;-81
2022/10/02 05:50:09;;;;;;;7.60;1.30;;;;;;;;;;5060906;28;20155;-79
2022/10/02 05:52:40;;;;;;;6.05;1.20;;;;;;;;;;5060301;28;20033;-80
2022/10/02 05:55:16;;;;;;;7.75;1.52;;;;;;;;;;5061874;28;20016;-81
2022/10/02 05:57:46;;;;;;;4.45;1.25;;;;;;;;;;5060765;28;20047;-77
2022/10/02 06:00:20;;;;;;;8.20;1.45;;;;;;;;;;5061232;28;20035;-78
2022/10/02 06:03:00;;;;;;;4.75;1.35;;;;;;;;;;5059782;28;20021;-81
2022/10/02 06:05:34;;;;;;;4.80;1.20;;;;;;;;;;5060721;28;20389;-80
2022/10/02 06:08:02;;;;;;;4.88;1.02;;;;;;;;;;5054081;28;20494;-78
2022/10/02 06:10:35;;;;;;;5.00;1.30;;;;;;;;;;5061903;28;20037;-76
2022/10/02 06:13:06;;;;;;;6.13;1.60;;;;;;;;;;5060969;28;20055;-79
2022/10/02 06:15:32;;;;;;;2.85;0.95;;;;;;;;;;5059538;28;20032;-79
2022/10/02 06:18:02;;;;;;;5.82;1.25;;;;;;;;;;5059866;28;20120;-78
2022/10/02 06:20:28;;;;;;;5.00;1.08;;;;;;;;;;5057768;28;20176;-80
2022/10/02 06:23:07;;;;;;;8.80;1.35;;;;;;;;;;5050167;28;20179;-79
2022/10/02 06:25:36;;;;;;;12.45;1.42;;;;;;;;;;5056071;28;20111;-80
2022/10/02 06:28:29;;;;;;;4.63;1.10;;;;;;;;;;5049336;28;20024;-81
2022/10/02 06:30:59;;;;;;;4.53;1.20;;;;;;;;;;5049078;28;20043;-79
2022/10/02 06:33:28;;;;;;;4.47;1.20;;;;;;;;;;5053061;28;20005;-80
2022/10/02 06:36:06;;;;;;;5.20;1.10;;;;;;;;;;5046845;28;20055;-80
2022/10/02 06:38:45;;;;;;;5.20;1.17;;;;;;;;;;5042788;28;20044;-77
2022/10/02 06:41:37;;;;;;;5.90;1.20;;;;;;;;;;5043366;28;20021;-79
2022/10/02 06:44:18;;;;;;;6.30;1.13;;;;;;;;;;5038922;28;20036;-79
2022/10/02 06:47:02;;;;;;;4.00;1.10;;;;;;;;;;5044251;28;20028;-81
2022/10/02 06:49:47;;;;;;;7.88;1.30;;;;;;;;;;5043174;28;20486;-81
2022/10/02 06:52:16;;;;;;;3.85;1.00;;;;;;;;;;5048117;28;20048;-79
2022/10/02 06:54:54;;;;;;;9.98;1.75;;;;;;;;;;5051193;28;20107;-75
2022/10/02 06:57:39;;;;;;;6.72;1.50;;;;;;;;;;5043892;28;20021;-77
2022/10/02 07:00:11;;;;;;;6.60;1.58;;;;;;;;;;5047692;28;20032;-80
2022/10/02 07:02:56;;;;;;;6.65;1.35;;;;;;;;;;5056077;28;20482;-74
2022/10/02 07:05:40;;;;;;;12.15;1.77;;;;;;;;;;5051709;28;20350;-79
2022/10/02 07:08:10;;;;;;;6.68;1.40;;;;;;;;;;5054440;28;20020;-78
2022/10/02 07:10:55;;;;;;;4.00;1.45;;;;;;;;;;5048845;28;20028;-79
2022/10/02 07:13:21;;;;;;;5.45;1.30;;;;;;;;;;5055638;28;20547;-73
2022/10/02 07:15:56;;;;;;;6.53;1.35;;;;;;;;;;5048412;28;20108;-80
2022/10/02 07:18:41;;;;;;;3.47;1.27;;;;;;;;;;5051607;28;20040;-79
2022/10/02 07:21:26;;;;;;;4.55;1.83;;;;;;;;;;5055307;28;20078;-75
2022/10/02 07:23:57;;;;;;;4.95;1.35;;;;;;;;;;5038624;28;20024;-79
2022/10/02 07:26:29;;;;;;;3.50;1.42;;;;;;;;;;5059633;28;20020;-79
2022/10/02 07:29:02;;;;;;;4.40;1.10;;;;;;;;;;5060277;28;20308;-80
2022/10/02 07:31:44;;;;;;;5.88;1.77;;;;;;;;;;5060194;28;20061;-79
2022/10/02 07:34:13;;;;;;;2.03;1.40;;;;;;;;;;5060140;28;20446;-81
2022/10/02 07:36:45;;;;;;;2.97;1.13;;;;;;;;;;5058367;28;20020;-80
2022/10/02 07:39:24;;;;;;;4.20;1.30;;;;;;;;;;5060431;28;20079;-78
2022/10/02 07:41:50;;;;;;;6.10;1.63;;;;;;;;;;5059297;28;20025;-76
2022/10/02 07:44:17;;;;;;;4.85;1.35;;;;;;;;;;5058760;28;20565;-80
2022/10/02 07:46:53;;;;;;;3.42;1.10;;;;;;;;;;5059885;28;20123;-78
2022/10/02 07:49:22;;;;;;;7.25;1.23;;;;;;;;;;5036970;28;20041;-81
2022/10/02 07:51:57;;;;;;;5.43;1.30;;;;;;;;;;5043597;28;20028;-80
2022/10/02 07:54:33;;;;;;;7.63;1.77;;;;;;;;;;5037604;28;20102;-81
2022/10/02 07:57:03;;;;;;;4.55;1.30;;;;;;;;;;5032298;28;20021;-80
2022/10/02 07:59:31;;;;;;;6.20;1.38;;;;;;;;;;5036623;28;20082;-81
2022/10/02 08:01:58;;;;;;;5.47;1.42;;;;;;;;;;5039379;28;20021;-82
2022/10/02 08:04:24;;;;;;;10.57;2.60;;;;;;;;;;5037905;28;20525;-82
2022/10/02 08:06:53;;;;;;;4.85;1.02;;;;;;;;;;5038213;28;20037;-78
2022/10/02 08:09:22;;;;;;;4.53;1.25;;;;;;;;;;5035548;28;20789;-81
2022/10/02 08:12:06;;;;;;;2.92;1.00;;;;;;;;;;5037533;28;20033;-79
2022/10/02 08:14:42;;;;;;;4.32;1.45;;;;;;;;;;5041260;28;20025;-83
2022/10/02 08:17:11;;;;;;;5.15;1.77;;;;;;;;;;5043535;28;20049;-82
2022/10/02 08:19:39;;;;;;;3.97;1.15;;;;;;;;;;5037321;28;20447;-81
2022/10/02 08:22:27;;;;;;;4.65;1.10;;;;;;;;;;5042310;28;20024;-81
2022/10/02 08:24:56;;;;;;;5.80;1.45;;;;;;;;;;5042487;28;20041;-83
2022/10/02 08:27:49;;;;;;;2.65;1.17;;;;;;;;;;5040661;28;20021;-82
2022/10/02 08:30:15;;;;;;;6.50;1.38;;;;;;;;;;5034118;28;20032;-81
2022/10/02 08:32:42;;;;;;;5.38;1.33;;;;;;;;;;5035049;28;20053;-79
2022/10/02 08:35:13;;;;;;;5.38;1.25;;;;;;;;;;5040240;28;20079;-82
2022/10/02 08:37:48;;;;;;;6.63;1.70;;;;;;;;;;5043269;28;20043;-81
2022/10/02 08:40:43;;;;;;;4.82;1.48;;;;;;;;;;5044456;28;20017;-86
2022/10/02 08:43:36;;;;;;;7.00;1.40;;;;;;;;;;5031936;28;20087;-80
2022/10/02 08:46:22;;;;;;;3.65;1.33;;;;;;;;;;5005206;28;20565;-79
2022/10/02 08:48:53;;;;;;;3.53;1.05;;;;;;;;;;5039919;28;20045;-78
2022/10/02 08:51:38;;;;;;;4.80;1.05;;;;;;;;;;5035403;28;20037;-80
2022/10/02 08:54:18;;;;;;;7.03;1.80;;;;;;;;;;5042907;28;20208;-81
2022/10/02 08:57:12;;;;;;;8.45;1.30;;;;;;;;;;5041269;28;20028;-81
2022/10/02 09:00:05;;;;;;;7.43;1.55;;;;;;;;;;5041374;28;20032;-81
2022/10/02 09:02:31;;;;;;;4.20;1.45;;;;;;;;;;5040113;28;20019;-79
2022/10/02 09:05:06;;;;;;;10.45;1.48;;;;;;;;;;5042217;28;20032;-82
2022/10/02 09:07:58;;;;;;;4.75;1.10;;;;;;;;;;5039626;28;20040;-82
2022/10/02 09:10:25;;;;;;;;;;;;;;;;;;5041612;28;20033;-82
2022/10/02 09:13:17;;;;;;;6.65;1.27;;;;;;;;;;5040765;28;19954;-82
2022/10/02 09:15:53;;;;;;;7.63;1.42;;;;;;;;;;5038104;28;20079;-82
2022/10/02 09:18:38;;;;;;;3.22;1.15;;;;;;;;;;5041020;28;20603;-81
2022/10/02 09:21:28;;;;;;;5.35;1.13;;;;;;;;;;5041107;28;20035;-85
2022/10/02 09:24:14;;;;;;;3.58;1.10;;;;;;;;;;5042436;28;20435;-80
2022/10/02 09:26:51;;;;;;;7.80;1.30;;;;;;;;;;5043302;28;20039;-82
2022/10/02 09:29:27;;;;;;;5.68;1.27;;;;;;;;;;5044628;28;20090;-88
2022/10/02 09:32:06;;;;;;;6.18;1.27;;;;;;;;;;5040679;28;20021;-74
2022/10/02 09:34:41;;;;;;;5.82;1.38;;;;;;;;;;5043212;28;20021;-79
2022/10/02 09:37:27;;;;;;;6.82;1.65;;;;;;;;;;5041891;28;20484;-79
2022/10/02 09:40:12;;;;;;;4.78;1.20;;;;;;;;;;5039340;28;20029;-74
2022/10/02 09:42:47;;;;;;;5.93;1.10;;;;;;;;;;5033969;28;20048;-82
2022/10/02 09:45:41;;;;;;;6.10;0.98;;;;;;;;;;5044519;28;20017;-85
2022/10/02 09:48:29;;;;;;;5.13;0.90;;;;;;;;;;5049098;28;20119;-91
2022/10/02 09:51:04;;;;;;;2.20;1.00;;;;;;;;;;5063590;28;20025;-86
2022/10/02 09:53:49;;;;;;;4.85;0.90;;;;;;;;;;5064946;28;20036;-90
2022/10/02 09:56:22;;;;;;;5.05;1.10;;;;;;;;;;5046303;28;20048;-87
2022/10/02 09:58:49;;;;;;;4.07;1.20;;;;;;;;;;5060458;28;20123;-84
2022/10/02 10:01:21;;;;;;;7.43;1.40;;;;;;;;;;5066103;28;20100;-71
2022/10/02 10:04:11;;;;;;;6.40;1.75;;;;;;;;;;5061873;28;20070;-73
2022/10/02 10:06:46;;;;;;;6.10;1.95;;;;;;;;;;5062744;28;20036;-76
2022/10/02 10:09:13;;;;;;;3.85;1.40;;;;;;;;;;5060706;28;20495;-84
2022/10/02 10:11:48;;;;;;;6.93;1.42;;;;;;;;;;5043741;28;20042;-80
2022/10/02 10:14:33;;;;;;;7.00;1.52;;;;;;;;;;5060132;28;20051;-80
2022/10/02 10:17:04;;;;;;;2.75;1.00;;;;;;;;;;5056068;28;20043;-83
2022/10/02 10:19:46;;;;;;;4.10;1.15;;;;;;;;;;5061591;28;20107;-77
2022/10/02 10:22:37;;;;;;;3.97;1.17;;;;;;;;;;5061312;28;20489;-77
2022/10/02 10:25:14;;;;;;;5.03;1.15;;;;;;;;;;5055863;28;20064;-76
2022/10/02 10:27:51;;;;;;;4.88;1.17;;;;;;;;;;5058931;28;20044;-76
2022/10/02 10:30:42;;;;;;;5.60;1.30;;;;;;;;;;5043257;28;20032;-74
2022/10/02 10:33:08;;;;;;;5.22;1.50;;;;;;;;;;5037097;28;20036;-74
2022/10/02 10:35:45;;;;;;;1.98;0.82;;;;;;;;;;5061151;28;20104;-77
2022/10/02 10:38:37;;;;;;;1.77;0.80;;;;;;;;;;5059406;28;20036;-77
2022/10/02 10:41:22;;;;;;;4.10;1.20;;;;;;;;;;5059787;28;20048;-72
2022/10/02 10:44:07;;;;;;;4.43;1.10;;;;;;;;;;5050023;28;20489;-75
2022/10/02 10:46:33;;;;;;;7.03;1.35;;;;;;;;;;5061134;28;20028;-76
2022/10/02 10:49:17;;;;;;;2.55;1.33;;;;;;;;;;5047096;28;20516;-75
2022/10/02 10:51:59;;;;;;;3.33;0.93;;;;;;;;;;5062203;28;20024;-76
2022/10/02 10:54:48;;;;;;;3.38;1.70;;;;;;;;;;5046484;28;20494;-75
2022/10/02 10:57:33;;;;;;;4.13;1.05;;;;;;;;;;5005416;28;20118;-76
2022/10/02 11:00:18;;;;;;;3.40;0.95;;;;;;;;;;5061357;28;20058;-74
2022/10/02 11:03:00;;;;;;;5.65;1.00;;;;;;;;;;5061358;28;20016;-75
2022/10/02 11:05:35;;;;;;;3.55;0.95;;;;;;;;;;5061004;28;20044;-75
2022/10/02 11:08:05;;;;;;;6.68;1.20;;;;;;;;;;5058246;28;20457;-74
2022/10/02 11:10:49;;;;;;;4.70;1.08;;;;;;;;;;5053472;28;20538;-71
2022/10/02 11:13:29;;;;;;;2.65;0.88;;;;;;;;;;5055921;28;20085;-74
2022/10/02 11:16:05;;;;;;;3.78;1.35;;;;;;;;;;5060963;28;20044;-75
2022/10/02 11:18:34;;;;;;;3.35;1.08;;;;;;;;;;5060620;28;20029;-74
2022/10/02 11:21:27;;;;;;;2.38;1.10;;;;;;;;;;5041603;28;20025;-74
2022/10/02 11:24:06;;;;;;;3.60;1.00;;;;;;;;;;5061143;28;20016;-72
2022/10/02 11:26:36;;;;;;;3.13;1.13;;;;;;;;;;5060661;28;20020;-74
2022/10/02 11:29:21;;;;;;;5.13;1.33;;;;;;;;;;5059730;28;20243;-72
2022/10/02 11:31:56;;;;;;;3.92;0.95;;;;;;;;;;5060721;28;20021;-71
2022/10/02 11:34:42;;;;;;;9.07;1.23;;;;;;;;;;5061064;28;20070;-72
2022/10/02 11:37:09;;;;;;;6.53;1.60;;;;;;;;;;5029442;28;20696;-75
2022/10/02 11:39:54;;;;;;;4.45;1.08;;;;;;;;;;5059228;28;20039;-76
2022/10/02 11:42:20;;;;;;;6.68;1.08;;;;;;;;;;5059380;28;20023;-72
2022/10/02 11:44:54;;;;;;;4.50;0.93;;;;;;;;;;5063410;28;20043;-73
2022/10/02 11:47:21;;;;;;;5.72;1.25;;;;;;;;;;5059963;28;20040;-76
2022/10/02 11:49:57;;;;;;;2.10;0.90;;;;;;;;;;5064962;28;20389;-72
2022/10/02 11:52:24;;;;;;;4.63;1.00;;;;;;;;;;5058097;28;20017;-72
2022/10/02 11:54:54;;;;;;;2.28;0.70;;;;;;;;;;5061446;28;20036;-73
2022/10/02 11:57:39;;;;;;;2.83;0.90;;;;;;;;;;5044803;28;20426;-73
2022/10/02 12:00:14;;;;;;;4.10;1.05;;;;;;;;;;5063831;28;20032;-74
2022/10/02 12:03:14;;;;;;;6.10;1.10;;;;;;;;;;5063331;28;20458;-76
2022/10/02 12:05:43;;;;;;;3.42;0.73;;;;;;;;;;5021893;28;20116;-75
2022/10/02 12:08:33;;;;;;;6.35;1.08;;;;;;;;;;5063781;28;20025;-74
2022/10/02 12:11:18;;;;;;;3.78;1.02;;;;;;;;;;5062617;28;20048;-74
2022/10/02 12:13:47;;;;;;;4.07;1.13;;;;;;;;;;5064350;28;20135;-73
2022/10/02 12:16:16;;;;;;;2.22;0.95;;;;;;;;;;5061650;28;20016;-75
2022/10/02 12:18:54;;;;;;;5.15;1.48;;;;;;;;;;5063747;28;20044;-75
2022/10/02 12:27:22;;;;;;;4.22;1.02;;;;;;;;;;5054890;28;20082;-76
2022/10/02 12:29:59;;;;;;;4.80;1.38;;;;;;;;;;5062379;28;20052;-77
2022/10/02 12:32:35;;;;;;;6.43;2.17;;;;;;;;;;5054534;28;20021;-77
2022/10/02 12:35:07;;;;;;;6.63;1.10;;;;;;;;;;5043850;28;20166;-75
2022/10/02 12:37:42;;;;;;;4.70;1.10;;;;;;;;;;5064000;28;20036;-74
2022/10/02 12:40:17;;;;;;;7.60;1.30;;;;;;;;;;5062231;28;20042;-75
2022/10/02 12:43:01;;;;;;;6.57;1.25;;;;;;;;;;5063852;28;20214;-76
2022/10/02 12:45:49;;;;;;;4.20;0.98;;;;;;;;;;5049453;28;20131;-76
2022/10/02 12:48:25;;;;;;;4.80;1.30;;;;;;;;;;5050179;28;20080;-74
2022/10/02 12:51:04;;;;;;;5.63;1.20;;;;;;;;;;5060675;28;20020;-72
2022/10/02 12:53:49;;;;;;;6.40;1.33;;;;;;;;;;5063834;28;20040;-73
2022/10/02 12:56:34;;;;;;;3.83;0.88;;;;;;;;;;5032639;28;20066;-73
2022/10/02 12:59:18;;;;;;;5.10;1.27;;;;;;;;;;5061128;28;20032;-77
2022/10/02 13:02:06;;;;;;;7.88;1.45;;;;;;;;;;5063478;28;20017;-75
2022/10/02 13:04:59;;;;;;;4.18;1.20;;;;;;;;;;5061961;28;20085;-77
2022/10/02 13:07:44;;;;;;;3.28;0.93;;;;;;;;;;5063229;28;20039;-77
2022/10/02 13:10:17;;;;;;;3.88;1.05;;;;;;;;;;5062361;28;20040;-74
2022/10/02 13:12:50;;;;;;;3.20;1.00;;;;;;;;;;5061613;28;20524;-77
2022/10/02 13:15:27;;;;;;;5.07;1.10;;;;;;;;;;5059969;28;20029;-76
2022/10/02 13:18:13;;;;;;;4.82;1.08;;;;;;;;;;5060192;28;20043;-74
2022/10/02 13:20:44;;;;;;;2.45;1.02;;;;;;;;;;5053739;28;20028;-76
2022/10/02 13:23:18;;;;;;;7.22;1.58;;;;;;;;;;5061085;28;20033;-77
2022/10/02 13:25:59;;;;;;;4.30;1.17;;;;;;;;;;5040888;28;20040;-75
2022/10/02 13:28:35;;;;;;;3.30;0.90;;;;;;;;;;5059815;28;20052;-78
2022/10/02 13:31:16;;;;;;;8.05;1.58;;;;;;;;;;5065738;28;20281;-77
2022/10/02 13:33:49;;;;;;;7.88;1.13;;;;;;;;;;5059563;28;20020;-79
2022/10/02 13:36:18;;;;;;;7.32;1.35;;;;;;;;;;5060526;28;20778;-74
2022/10/02 13:38:53;;;;;;;4.88;0.90;;;;;;;;;;5063382;28;20089;-79
2022/10/02 13:41:19;;;;;;;1.73;0.90;;;;;;;;;;5059377;28;20107;-79
2022/10/02 13:43:51;;;;;;;7.53;1.40;;;;;;;;;;5059973;28;20016;-78
2022/10/02 13:46:25;;;;;;;7.57;1.08;;;;;;;;;;5060049;28;20492;-78
2022/10/02 13:49:09;;;;;;;6.68;1.13;;;;;;;;;;5060148;28;20044;-77
2022/10/02 13:51:39;;;;;;;6.90;1.30;;;;;;;;;;5057241;28;20082;-79
2022/10/02 13:54:18;;;;;;;4.72;1.17;;;;;;;;;;5039537;28;20020;-79
2022/10/02 13:56:55;;;;;;;5.82;1.35;;;;;;;;;;5060413;28;20396;-76
2022/10/02 13:59:33;;;;;;;4.70;1.50;;;;;;;;;;5061072;28;20024;-77
2022/10/02 14:02:05;;;;;;;3.42;0.95;;;;;;;;;;5063092;28;20066;-76
2022/10/02 14:04:40;;;;;;;3.40;1.13;;;;;;;;;;5061987;28;20016;-75
2022/10/02 14:07:15;;;;;;;5.78;1.67;;;;;;;;;;5062191;28;20595;-73
2022/10/02 14:10:00;;;;;;;5.13;1.58;;;;;;;;;;5046925;28;20384;-74
2022/10/02 14:12:27;;;;;;;4.50;1.50;;;;;;;;;;5061067;28;20094;-73
2022/10/02 14:15:16;;;;;;;6.00;1.40;;;;;;;;;;5062126;28;20076;-72
2022/10/02 14:17:42;;;;;;;5.55;1.33;;;;;;;;;;5048298;28;20032;-71
2022/10/02 14:20:37;;;;;;;4.30;1.30;;;;;;;;;;5062184;28;20059;-71
2022/10/02 14:23:13;;;;;;;9.52;1.23;;;;;;;;;;5028780;28;20068;-73
2022/10/02 14:26:05;;;;;;;4.20;1.40;;;;;;;;;;5060071;28;20025;-74
2022/10/02 14:28:39;;;;;;;8.27;1.30;;;;;;;;;;5057054;28;20036;-74
2022/10/02 14:31:25;;;;;;;4.07;1.23;;;;;;;;;;5061178;28;20025;-73
2022/10/02 14:33:51;;;;;;;6.55;1.58;;;;;;;;;;5061764;28;20105;-75
2022/10/02 14:36:39;;;;;;;3.80;1.10;;;;;;;;;;5059783;28;20178;-71
2022/10/02 14:39:14;;;;;;;4.72;1.30;;;;;;;;;;5011119;28;20049;-72
2022/10/02 14:41:54;;;;;;;6.00;1.17;;;;;;;;;;5061360;28;20024;-73
2022/10/02 14:44:20;;;;;;;4.18;1.02;;;;;;;;;;5061406;28;20145;-74
2022/10/02 14:46:46;;;;;;;4.18;1.02;;;;;;;;;;5059848;28;20020;-72
2022/10/02 14:49:27;;;;;;;9.43;1.58;;;;;;;;;;5047481;28;20534;-74
2022/10/02 14:52:16;;;;;;;9.25;1.55;;;;;;;;;;5061234;28;20029;-74
2022/10/02 14:54:42;;;;;;;6.68;2.00;;;;;;;;;;5060686;28;20029;-73
2022/10/02 14:57:35;;;;;;;6.50;1.45;;;;;;;;;;5060916;28;20050;-74
2022/10/02 15:00:04;;;;;;;6.35;1.60;;;;;;;;;;5056720;28;20574;-73
2022/10/02 15:02:49;;;;;;;6.82;1.13;;;;;;;;;;5059977;28;20027;-74
2022/10/02 15:05:34;;;;;;;4.03;1.15;;;;;;;;;;5061153;28;20033;-72
2022/10/02 15:08:02;;;;;;;7.05;1.42;;;;;;;;;;5047431;28;20458;-74
2022/10/02 15:10:34;;;;;;;4.63;1.63;;;;;;;;;;5061759;28;20025;-74
2022/10/02 15:13:00;;;;;;;3.97;1.13;;;;;;;;;;5061537;28;20107;-74
2022/10/02 15:15:31;;;;;;;5.90;1.40;;;;;;;;;;5059461;28;20024;-74
2022/10/02 15:18:18;;;;;;;4.32;1.23;;;;;;;;;;5061242;28;20033;-72
2022/10/02 15:20:59;;;;;;;5.72;1.40;;;;;;;;;;5061461;28;20032;-75
2022/10/02 15:23:39;;;;;;;5.53;1.40;;;;;;;;;;5059864;28;20082;-73
2022/10/02 15:26:31;;;;;;;7.90;1.55;;;;;;;;;;5060599;28;20028;-73
2022/10/02 15:29:20;;;;;;;6.60;1.70;;;;;;;;;;5055610;28;20852;-72
2022/10/02 15:32:01;;;;;;;7.85;1.52;;;;;;;;;;5058418;28;20028;-73
2022/10/02 15:34:47;;;;;;;6.63;1.52;;;;;;;;;;5060720;28;20103;-73
2022/10/02 15:37:36;;;;;;;4.63;1.42;;;;;;;;;;5049261;28;20025;-74
2022/10/02 15:40:08;;;;;;;6.57;1.50;;;;;;;;;;5007309;28;20048;-72